sensor_id;sensor_type;location;lat;lon;timestamp;pressure;altitude;pressure_sealevel;temperature;humidity
29045;BME280;16133;49.486;12.176;2022-08-16T00:00:20;96747.41;;;17.94;81.98
29045;BME280;16133;49.486;12.176;2022-08-16T00:02:46;96745.47;;;17.89;82.10
29045;BME280;16133;49.486;12.176;2022-08-16T00:05:13;96749.91;;;17.84;82.00
29045;BME280;16133;49.486;12.176;2022-08-16T00:07:39;96751.94;;;17.77;81.82
29045;BME280;16133;49.486;12.176;2022-08-16T00:10:06;96746.72;;;17.70;83.23
29045;BME280;16133;49.486;12.176;2022-08-16T00:12:32;96755.72;;;17.64;85.28
29045;BME280;16133;49.486;12.176;2022-08-16T00:15:00;96753.19;;;17.57;84.01
29045;BME280;16133;49.486;12.176;2022-08-16T00:17:27;96759.50;;;17.51;85.18
29045;BME280;16133;49.486;12.176;2022-08-16T00:19:54;96766.84;;;17.44;85.20
29045;BME280;16133;49.486;12.176;2022-08-16T00:22:22;96760.25;;;17.35;84.80
29045;BME280;16133;49.486;12.176;2022-08-16T00:24:48;96758.16;;;17.26;83.82
29045;BME280;16133;49.486;12.176;2022-08-16T00:27:13;96759.59;;;17.16;85.33
29045;BME280;16133;49.486;12.176;2022-08-16T00:29:42;96751.91;;;17.08;85.44
29045;BME280;16133;49.486;12.176;2022-08-16T00:32:08;96755.19;;;16.99;86.46
29045;BME280;16133;49.486;12.176;2022-08-16T00:34:35;96754.97;;;16.89;87.01
29045;BME280;16133;49.486;12.176;2022-08-16T00:37:01;96764.41;;;16.80;87.43
29045;BME280;16133;49.486;12.176;2022-08-16T00:39:27;96768.16;;;16.67;88.27
29045;BME280;16133;49.486;12.176;2022-08-16T00:41:52;96759.88;;;16.57;90.10
29045;BME280;16133;49.486;12.176;2022-08-16T00:44:20;96760.44;;;16.47;90.62
29045;BME280;16133;49.486;12.176;2022-08-16T00:46:55;96756.34;;;16.33;92.26
29045;BME280;16133;49.486;12.176;2022-08-16T00:49:22;96766.81;;;16.23;93.43
29045;BME280;16133;49.486;12.176;2022-08-16T00:51:50;96763.06;;;16.12;94.87
29045;BME280;16133;49.486;12.176;2022-08-16T00:54:17;96762.00;;;16.02;95.44
29045;BME280;16133;49.486;12.176;2022-08-16T00:56:44;96768.94;;;15.91;96.88
29045;BME280;16133;49.486;12.176;2022-08-16T00:59:12;96773.00;;;15.82;97.89
29045;BME280;16133;49.486;12.176;2022-08-16T01:01:39;96782.38;;;15.73;99.23
29045;BME280;16133;49.486;12.176;2022-08-16T01:04:05;96782.69;;;15.65;100.00
29045;BME280;16133;49.486;12.176;2022-08-16T01:06:32;96784.66;;;15.58;100.00
29045;BME280;16133;49.486;12.176;2022-08-16T01:08:58;96783.94;;;15.51;100.00
29045;BME280;16133;49.486;12.176;2022-08-16T01:11:27;96776.19;;;15.43;100.00
29045;BME280;16133;49.486;12.176;2022-08-16T01:13:56;96785.31;;;15.35;100.00
29045;BME280;16133;49.486;12.176;2022-08-16T01:16:26;96781.94;;;15.28;100.00
29045;BME280;16133;49.486;12.176;2022-08-16T01:21:27;96786.97;;;15.18;100.00
29045;BME280;16133;49.486;12.176;2022-08-16T01:26:22;96781.16;;;15.03;100.00
29045;BME280;16133;49.486;12.176;2022-08-16T01:28:48;96783.72;;;14.98;100.00
29045;BME280;16133;49.486;12.176;2022-08-16T01:31:16;96766.94;;;14.91;100.00
29045;BME280;16133;49.486;12.176;2022-08-16T01:33:44;96778.50;;;14.84;100.00
29045;BME280;16133;49.486;12.176;2022-08-16T01:36:09;96782.06;;;14.78;100.00
29045;BME280;16133;49.486;12.176;2022-08-16T01:38:40;96778.66;;;14.71;100.00
29045;BME280;16133;49.486;12.176;2022-08-16T01:41:11;96783.22;;;14.64;100.00
29045;BME280;16133;49.486;12.176;2022-08-16T01:43:39;96785.13;;;14.57;100.00
29045;BME280;16133;49.486;12.176;2022-08-16T01:46:16;96794.03;;;14.51;100.00
29045;BME280;16133;49.486;12.176;2022-08-16T01:48:43;96806.41;;;14.46;100.00
29045;BME280;16133;49.486;12.176;2022-08-16T01:51:08;96799.28;;;14.40;100.00
29045;BME280;16133;49.486;12.176;2022-08-16T01:53:35;96807.31;;;14.33;100.00
29045;BME280;16133;49.486;12.176;2022-08-16T01:56:00;96800.97;;;14.27;100.00
29045;BME280;16133;49.486;12.176;2022-08-16T01:58:26;96805.09;;;14.23;100.00
29045;BME280;16133;49.486;12.176;2022-08-16T02:00:52;96803.09;;;14.19;100.00
29045;BME280;16133;49.486;12.176;2022-08-16T02:03:17;96794.94;;;14.14;100.00
29045;BME280;16133;49.486;12.176;2022-08-16T02:05:43;96807.91;;;14.10;100.00
29045;BME280;16133;49.486;12.176;2022-08-16T02:08:08;96801.34;;;14.06;100.00
29045;BME280;16133;49.486;12.176;2022-08-16T02:10:34;96802.59;;;14.04;100.00
29045;BME280;16133;49.486;12.176;2022-08-16T02:13:02;96801.38;;;14.00;100.00
29045;BME280;16133;49.486;12.176;2022-08-16T02:15:29;96799.38;;;13.95;100.00
29045;BME280;16133;49.486;12.176;2022-08-16T02:17:57;96801.03;;;13.89;100.00
29045;BME280;16133;49.486;12.176;2022-08-16T02:20:23;96806.81;;;13.86;100.00
29045;BME280;16133;49.486;12.176;2022-08-16T02:22:49;96799.66;;;13.80;100.00
29045;BME280;16133;49.486;12.176;2022-08-16T02:25:15;96801.94;;;13.77;100.00
29045;BME280;16133;49.486;12.176;2022-08-16T02:27:43;96803.41;;;13.73;100.00
29045;BME280;16133;49.486;12.176;2022-08-16T02:30:13;96808.56;;;13.68;100.00
29045;BME280;16133;49.486;12.176;2022-08-16T02:32:40;96810.22;;;13.62;100.00
29045;BME280;16133;49.486;12.176;2022-08-16T02:35:06;96812.50;;;13.59;100.00
29045;BME280;16133;49.486;12.176;2022-08-16T02:37:31;96809.66;;;13.54;100.00
29045;BME280;16133;49.486;12.176;2022-08-16T02:39:57;96807.63;;;13.49;100.00
29045;BME280;16133;49.486;12.176;2022-08-16T02:42:22;96808.28;;;13.45;100.00
29045;BME280;16133;49.486;12.176;2022-08-16T02:44:48;96807.88;;;13.41;100.00
29045;BME280;16133;49.486;12.176;2022-08-16T02:47:13;96812.00;;;13.37;100.00
29045;BME280;16133;49.486;12.176;2022-08-16T02:49:38;96814.28;;;13.33;100.00
29045;BME280;16133;49.486;12.176;2022-08-16T02:52:04;96805.06;;;13.29;100.00
29045;BME280;16133;49.486;12.176;2022-08-16T02:54:29;96810.00;;;13.26;100.00
29045;BME280;16133;49.486;12.176;2022-08-16T02:56:55;96807.13;;;13.21;100.00
29045;BME280;16133;49.486;12.176;2022-08-16T02:59:20;96807.56;;;13.18;100.00
29045;BME280;16133;49.486;12.176;2022-08-16T03:01:45;96802.44;;;13.16;100.00
29045;BME280;16133;49.486;12.176;2022-08-16T03:04:11;96803.69;;;13.14;100.00
29045;BME280;16133;49.486;12.176;2022-08-16T03:06:36;96793.44;;;13.11;100.00
29045;BME280;16133;49.486;12.176;2022-08-16T03:09:02;96798.13;;;13.09;100.00
29045;BME280;16133;49.486;12.176;2022-08-16T03:11:29;96795.88;;;13.06;100.00
29045;BME280;16133;49.486;12.176;2022-08-16T03:13:56;96787.50;;;13.02;100.00
29045;BME280;16133;49.486;12.176;2022-08-16T03:16:22;96787.94;;;12.99;100.00
29045;BME280;16133;49.486;12.176;2022-08-16T03:18:48;96787.31;;;12.97;100.00
29045;BME280;16133;49.486;12.176;2022-08-16T03:21:13;96793.88;;;12.94;100.00
29045;BME280;16133;49.486;12.176;2022-08-16T03:23:40;96795.91;;;12.92;100.00
29045;BME280;16133;49.486;12.176;2022-08-16T03:26:05;96791.00;;;12.89;100.00
29045;BME280;16133;49.486;12.176;2022-08-16T03:28:31;96779.75;;;12.87;100.00
29045;BME280;16133;49.486;12.176;2022-08-16T03:30:56;96782.03;;;12.84;100.00
29045;BME280;16133;49.486;12.176;2022-08-16T03:33:21;96773.63;;;12.80;100.00
29045;BME280;16133;49.486;12.176;2022-08-16T03:35:48;96781.00;;;12.78;100.00
29045;BME280;16133;49.486;12.176;2022-08-16T03:38:15;96783.03;;;12.76;100.00
29045;BME280;16133;49.486;12.176;2022-08-16T03:40:42;96785.13;;;12.74;100.00
29045;BME280;16133;49.486;12.176;2022-08-16T03:43:10;96783.69;;;12.72;100.00
29045;BME280;16133;49.486;12.176;2022-08-16T03:45:37;96787.56;;;12.69;100.00
29045;BME280;16133;49.486;12.176;2022-08-16T03:48:03;96787.56;;;12.69;100.00
29045;BME280;16133;49.486;12.176;2022-08-16T03:50:29;96798.22;;;12.69;100.00
29045;BME280;16133;49.486;12.176;2022-08-16T03:52:55;96794.97;;;12.67;100.00
29045;BME280;16133;49.486;12.176;2022-08-16T03:55:21;96789.84;;;12.66;100.00
29045;BME280;16133;49.486;12.176;2022-08-16T03:57:47;96784.72;;;12.64;100.00
29045;BME280;16133;49.486;12.176;2022-08-16T04:00:20;96786.56;;;12.64;100.00
29045;BME280;16133;49.486;12.176;2022-08-16T04:02:46;96790.25;;;12.63;100.00
29045;BME280;16133;49.486;12.176;2022-08-16T04:05:13;96790.44;;;12.61;100.00
29045;BME280;16133;49.486;12.176;2022-08-16T04:07:40;96797.84;;;12.59;100.00
29045;BME280;16133;49.486;12.176;2022-08-16T04:10:08;96802.34;;;12.59;100.00
29045;BME280;16133;49.486;12.176;2022-08-16T04:12:35;96803.16;;;12.59;100.00
29045;BME280;16133;49.486;12.176;2022-08-16T04:15:01;96802.97;;;12.61;100.00
29045;BME280;16133;49.486;12.176;2022-08-16T04:17:28;96816.66;;;12.64;100.00
29045;BME280;16133;49.486;12.176;2022-08-16T04:19:54;96814.84;;;12.65;100.00
29045;BME280;16133;49.486;12.176;2022-08-16T04:22:20;96818.91;;;12.67;100.00
29045;BME280;16133;49.486;12.176;2022-08-16T04:24:45;96818.69;;;12.69;100.00
29045;BME280;16133;49.486;12.176;2022-08-16T04:27:10;96825.25;;;12.73;100.00
29045;BME280;16133;49.486;12.176;2022-08-16T04:29:36;96819.53;;;12.76;100.00
29045;BME280;16133;49.486;12.176;2022-08-16T04:32:01;96833.22;;;12.79;100.00
29045;BME280;16133;49.486;12.176;2022-08-16T04:34:31;96820.31;;;12.83;100.00
29045;BME280;16133;49.486;12.176;2022-08-16T04:36:57;96832.19;;;12.87;100.00
29045;BME280;16133;49.486;12.176;2022-08-16T04:39:28;96837.94;;;12.90;100.00
29045;BME280;16133;49.486;12.176;2022-08-16T04:41:54;96830.53;;;12.92;100.00
29045;BME280;16133;49.486;12.176;2022-08-16T04:44:19;96835.03;;;12.99;100.00
29045;BME280;16133;49.486;12.176;2022-08-16T04:46:45;96839.53;;;13.05;100.00
29045;BME280;16133;49.486;12.176;2022-08-16T04:49:10;96829.69;;;13.12;100.00
29045;BME280;16133;49.486;12.176;2022-08-16T04:51:37;96837.25;;;13.21;100.00
29045;BME280;16133;49.486;12.176;2022-08-16T04:54:06;96839.47;;;13.31;100.00
29045;BME280;16133;49.486;12.176;2022-08-16T04:56:31;96845.78;;;13.43;100.00
29045;BME280;16133;49.486;12.176;2022-08-16T04:58:56;96836.69;;;13.57;100.00
29045;BME280;16133;49.486;12.176;2022-08-16T05:01:22;96842.56;;;13.72;100.00
29045;BME280;16133;49.486;12.176;2022-08-16T05:03:47;96844.16;;;13.86;100.00
29045;BME280;16133;49.486;12.176;2022-08-16T05:06:13;96853.50;;;14.02;100.00
29045;BME280;16133;49.486;12.176;2022-08-16T05:08:38;96856.03;;;14.22;100.00
29045;BME280;16133;49.486;12.176;2022-08-16T05:11:05;96859.41;;;14.42;100.00
29045;BME280;16133;49.486;12.176;2022-08-16T05:13:33;96848.78;;;14.60;100.00
29045;BME280;16133;49.486;12.176;2022-08-16T05:15:59;96849.41;;;14.80;100.00
29045;BME280;16133;49.486;12.176;2022-08-16T05:18:24;96841.22;;;15.00;100.00
29045;BME280;16133;49.486;12.176;2022-08-16T05:20:50;96848.13;;;15.26;100.00
29045;BME280;16133;49.486;12.176;2022-08-16T05:23:15;96846.66;;;15.48;100.00
29045;BME280;16133;49.486;12.176;2022-08-16T05:25:41;96848.06;;;15.69;100.00
29045;BME280;16133;49.486;12.176;2022-08-16T05:28:07;96853.16;;;15.89;100.00
29045;BME280;16133;49.486;12.176;2022-08-16T05:30:35;96859.53;;;16.06;100.00
29045;BME280;16133;49.486;12.176;2022-08-16T05:33:01;96864.81;;;16.24;100.00
29045;BME280;16133;49.486;12.176;2022-08-16T05:35:26;96862.53;;;16.39;100.00
29045;BME280;16133;49.486;12.176;2022-08-16T05:37:52;96867.63;;;16.59;100.00
29045;BME280;16133;49.486;12.176;2022-08-16T05:40:17;96867.66;;;16.82;100.00
29045;BME280;16133;49.486;12.176;2022-08-16T05:42:42;96861.34;;;17.11;100.00
29045;BME280;16133;49.486;12.176;2022-08-16T05:45:08;96874.25;;;17.49;100.00
29045;BME280;16133;49.486;12.176;2022-08-16T05:47:34;96876.25;;;17.94;100.00
29045;BME280;16133;49.486;12.176;2022-08-16T05:49:59;96878.00;;;18.45;98.62
29045;BME280;16133;49.486;12.176;2022-08-16T05:52:24;96876.13;;;18.90;95.69
29045;BME280;16133;49.486;12.176;2022-08-16T05:54:50;96871.03;;;19.27;92.60
29045;BME280;16133;49.486;12.176;2022-08-16T05:57:17;96873.28;;;19.52;89.97
29045;BME280;16133;49.486;12.176;2022-08-16T05:59:44;96875.53;;;19.60;87.89
29045;BME280;16133;49.486;12.176;2022-08-16T06:02:11;96878.44;;;19.75;86.45
29045;BME280;16133;49.486;12.176;2022-08-16T06:04:37;96878.56;;;19.85;84.67
29045;BME280;16133;49.486;12.176;2022-08-16T06:07:03;96881.56;;;19.89;84.37
29045;BME280;16133;49.486;12.176;2022-08-16T06:09:31;96879.06;;;19.82;84.54
29045;BME280;16133;49.486;12.176;2022-08-16T06:11:56;96880.69;;;19.83;83.80
29045;BME280;16133;49.486;12.176;2022-08-16T06:14:24;96884.19;;;19.84;83.80
29045;BME280;16133;49.486;12.176;2022-08-16T06:16:50;96886.38;;;19.87;84.70
29045;BME280;16133;49.486;12.176;2022-08-16T06:19:17;96871.34;;;19.91;83.96
29045;BME280;16133;49.486;12.176;2022-08-16T06:21:42;96876.22;;;19.94;83.22
29045;BME280;16133;49.486;12.176;2022-08-16T06:24:08;96881.44;;;20.00;82.87
29045;BME280;16133;49.486;12.176;2022-08-16T06:26:33;96876.41;;;20.09;82.52
29045;BME280;16133;49.486;12.176;2022-08-16T06:28:59;96880.81;;;20.15;82.43
29045;BME280;16133;49.486;12.176;2022-08-16T06:31:24;96874.97;;;20.23;81.73
29045;BME280;16133;49.486;12.176;2022-08-16T06:33:50;96872.34;;;20.28;81.32
29045;BME280;16133;49.486;12.176;2022-08-16T06:36:16;96882.94;;;20.35;80.03
29045;BME280;16133;49.486;12.176;2022-08-16T06:38:41;96876.22;;;20.37;79.82
29045;BME280;16133;49.486;12.176;2022-08-16T06:41:08;96885.72;;;20.45;79.41
29045;BME280;16133;49.486;12.176;2022-08-16T06:43:34;96883.09;;;20.55;78.79
29045;BME280;16133;49.486;12.176;2022-08-16T06:46:21;96884.81;;;20.66;79.01
29045;BME280;16133;49.486;12.176;2022-08-16T06:48:48;96886.22;;;20.69;77.44
29045;BME280;16133;49.486;12.176;2022-08-16T06:51:14;96892.44;;;20.74;77.59
29045;BME280;16133;49.486;12.176;2022-08-16T06:53:39;96891.44;;;20.80;76.96
29045;BME280;16133;49.486;12.176;2022-08-16T06:56:06;96885.28;;;20.85;76.37
29045;BME280;16133;49.486;12.176;2022-08-16T06:58:33;96890.56;;;20.75;76.38
29045;BME280;16133;49.486;12.176;2022-08-16T07:01:02;96898.50;;;20.86;76.32
29045;BME280;16133;49.486;12.176;2022-08-16T07:03:29;96900.97;;;20.93;75.53
29045;BME280;16133;49.486;12.176;2022-08-16T07:05:56;96899.72;;;21.06;76.11
29045;BME280;16133;49.486;12.176;2022-08-16T07:08:23;96898.97;;;21.10;74.90
29045;BME280;16133;49.486;12.176;2022-08-16T07:10:49;96902.22;;;21.12;73.85
29045;BME280;16133;49.486;12.176;2022-08-16T07:13:15;96900.91;;;21.15;74.25
29045;BME280;16133;49.486;12.176;2022-08-16T07:15:41;96903.38;;;21.21;74.40
29045;BME280;16133;49.486;12.176;2022-08-16T07:18:07;96900.72;;;21.26;74.03
29045;BME280;16133;49.486;12.176;2022-08-16T07:20:37;96902.94;;;21.34;74.07
29045;BME280;16133;49.486;12.176;2022-08-16T07:23:03;96900.25;;;21.39;73.01
29045;BME280;16133;49.486;12.176;2022-08-16T07:25:31;96893.53;;;21.42;72.64
29045;BME280;16133;49.486;12.176;2022-08-16T07:27:57;96888.69;;;21.44;71.32
29045;BME280;16133;49.486;12.176;2022-08-16T07:30:22;96888.66;;;21.39;71.54
29045;BME280;16133;49.486;12.176;2022-08-16T07:32:48;96887.66;;;21.50;72.02
29045;BME280;16133;49.486;12.176;2022-08-16T07:35:15;96879.66;;;21.70;70.99
29045;BME280;16133;49.486;12.176;2022-08-16T07:37:41;96889.16;;;21.83;70.82
29045;BME280;16133;49.486;12.176;2022-08-16T07:40:06;96884.38;;;21.95;69.95
29045;BME280;16133;49.486;12.176;2022-08-16T07:42:32;96887.66;;;22.02;70.08
29045;BME280;16133;49.486;12.176;2022-08-16T07:44:57;96890.44;;;22.22;69.81
29045;BME280;16133;49.486;12.176;2022-08-16T07:47:23;96893.97;;;22.33;68.67
29045;BME280;16133;49.486;12.176;2022-08-16T07:49:48;96885.59;;;22.39;67.06
29045;BME280;16133;49.486;12.176;2022-08-16T07:52:14;96883.72;;;22.50;66.47
29045;BME280;16133;49.486;12.176;2022-08-16T07:54:39;96891.03;;;22.50;67.13
29045;BME280;16133;49.486;12.176;2022-08-16T07:57:04;96894.88;;;22.69;67.17
29045;BME280;16133;49.486;12.176;2022-08-16T07:59:30;96893.47;;;22.66;66.81
29045;BME280;16133;49.486;12.176;2022-08-16T08:01:55;96899.72;;;22.77;67.19
29045;BME280;16133;49.486;12.176;2022-08-16T08:04:21;96895.69;;;22.84;66.77
29045;BME280;16133;49.486;12.176;2022-08-16T08:06:46;96898.66;;;22.93;65.58
29045;BME280;16133;49.486;12.176;2022-08-16T08:09:12;96890.56;;;22.98;65.15
29045;BME280;16133;49.486;12.176;2022-08-16T08:11:37;96893.25;;;22.93;64.79
29045;BME280;16133;49.486;12.176;2022-08-16T08:14:03;96898.13;;;23.06;65.72
29045;BME280;16133;49.486;12.176;2022-08-16T08:16:29;96891.91;;;23.06;65.03
29045;BME280;16133;49.486;12.176;2022-08-16T08:18:54;96892.72;;;23.06;64.74
29045;BME280;16133;49.486;12.176;2022-08-16T08:21:24;96887.56;;;23.05;63.90
29045;BME280;16133;49.486;12.176;2022-08-16T08:23:50;96890.00;;;23.11;64.74
29045;BME280;16133;49.486;12.176;2022-08-16T08:26:16;96889.47;;;23.14;63.87
29045;BME280;16133;49.486;12.176;2022-08-16T08:28:42;96892.72;;;23.21;64.03
29045;BME280;16133;49.486;12.176;2022-08-16T08:31:08;96884.84;;;23.40;63.31
29045;BME280;16133;49.486;12.176;2022-08-16T08:33:35;96884.88;;;23.45;62.67
29045;BME280;16133;49.486;12.176;2022-08-16T08:36:03;96889.19;;;23.51;62.66
29045;BME280;16133;49.486;12.176;2022-08-16T08:38:32;96889.19;;;23.46;61.89
29045;BME280;16133;49.486;12.176;2022-08-16T08:40:58;96891.88;;;23.56;61.57
29045;BME280;16133;49.486;12.176;2022-08-16T08:43:23;96889.13;;;23.61;62.52
29045;BME280;16133;49.486;12.176;2022-08-16T08:45:50;96899.72;;;23.68;62.19
29045;BME280;16133;49.486;12.176;2022-08-16T08:48:17;96891.53;;;23.78;61.37
29045;BME280;16133;49.486;12.176;2022-08-16T08:50:43;96893.44;;;23.83;60.76
29045;BME280;16133;49.486;12.176;2022-08-16T08:53:08;96890.72;;;23.83;60.76
29045;BME280;16133;49.486;12.176;2022-08-16T08:55:34;96897.97;;;23.92;59.97
29045;BME280;16133;49.486;12.176;2022-08-16T08:58:00;96900.41;;;23.99;59.35
29045;BME280;16133;49.486;12.176;2022-08-16T09:00:26;96905.31;;;23.92;60.19
29045;BME280;16133;49.486;12.176;2022-08-16T09:02:53;96900.44;;;23.89;58.96
29045;BME280;16133;49.486;12.176;2022-08-16T09:05:20;96895.56;;;23.86;59.52
29045;BME280;16133;49.486;12.176;2022-08-16T09:07:46;96898.78;;;23.98;58.43
29045;BME280;16133;49.486;12.176;2022-08-16T09:10:11;96903.91;;;24.14;57.34
29045;BME280;16133;49.486;12.176;2022-08-16T09:12:38;96904.16;;;24.18;55.87
29045;BME280;16133;49.486;12.176;2022-08-16T09:15:06;96898.47;;;24.04;56.59
29045;BME280;16133;49.486;12.176;2022-08-16T09:17:33;96900.94;;;24.06;56.40
29045;BME280;16133;49.486;12.176;2022-08-16T09:19:58;96895.75;;;24.09;55.79
29045;BME280;16133;49.486;12.176;2022-08-16T09:22:26;96898.19;;;24.21;56.61
29045;BME280;16133;49.486;12.176;2022-08-16T09:24:52;96899.25;;;24.25;54.75
29045;BME280;16133;49.486;12.176;2022-08-16T09:27:17;96889.78;;;24.12;56.03
29045;BME280;16133;49.486;12.176;2022-08-16T09:29:43;96887.59;;;24.24;56.61
29045;BME280;16133;49.486;12.176;2022-08-16T09:32:09;96893.50;;;24.37;56.25
29045;BME280;16133;49.486;12.176;2022-08-16T09:34:34;96888.00;;;24.42;55.05
29045;BME280;16133;49.486;12.176;2022-08-16T09:37:00;96882.72;;;24.21;55.03
29045;BME280;16133;49.486;12.176;2022-08-16T09:39:25;96887.84;;;24.23;55.47
29045;BME280;16133;49.486;12.176;2022-08-16T09:41:53;96891.66;;;24.22;54.66
29045;BME280;16133;49.486;12.176;2022-08-16T09:44:22;96897.03;;;24.27;56.03
29045;BME280;16133;49.486;12.176;2022-08-16T09:46:51;96891.34;;;24.34;55.26
29045;BME280;16133;49.486;12.176;2022-08-16T09:49:18;96882.56;;;24.47;53.72
29045;BME280;16133;49.486;12.176;2022-08-16T09:51:44;96883.91;;;24.49;55.00
29045;BME280;16133;49.486;12.176;2022-08-16T09:54:10;96884.41;;;24.56;53.43
29045;BME280;16133;49.486;12.176;2022-08-16T09:56:38;96888.94;;;24.66;52.89
29045;BME280;16133;49.486;12.176;2022-08-16T09:59:06;96887.53;;;24.73;53.29
29045;BME280;16133;49.486;12.176;2022-08-16T10:01:32;96891.03;;;24.79;52.74
29045;BME280;16133;49.486;12.176;2022-08-16T10:03:59;96887.66;;;24.97;53.01
29045;BME280;16133;49.486;12.176;2022-08-16T10:06:24;96883.75;;;25.13;51.61
29045;BME280;16133;49.486;12.176;2022-08-16T10:08:50;96884.31;;;25.39;51.34
29045;BME280;16133;49.486;12.176;2022-08-16T10:11:16;96878.00;;;25.73;51.19
29045;BME280;16133;49.486;12.176;2022-08-16T10:14:00;96880.84;;;26.10;49.84
29045;BME280;16133;49.486;12.176;2022-08-16T10:16:25;96877.53;;;26.37;49.55
29045;BME280;16133;49.486;12.176;2022-08-16T10:18:51;96872.88;;;26.56;48.93
29045;BME280;16133;49.486;12.176;2022-08-16T10:21:20;96880.66;;;26.81;48.58
29045;BME280;16133;49.486;12.176;2022-08-16T10:23:46;96878.94;;;26.90;48.25
29045;BME280;16133;49.486;12.176;2022-08-16T10:26:13;96880.66;;;27.00;47.21
29045;BME280;16133;49.486;12.176;2022-08-16T10:28:38;96881.19;;;27.02;46.91
29045;BME280;16133;49.486;12.176;2022-08-16T10:31:05;96882.09;;;27.11;47.21
29045;BME280;16133;49.486;12.176;2022-08-16T10:33:32;96885.59;;;27.30;46.75
29045;BME280;16133;49.486;12.176;2022-08-16T10:35:58;96883.19;;;27.42;46.91
29045;BME280;16133;49.486;12.176;2022-08-16T10:38:25;96874.38;;;27.50;46.09
29045;BME280;16133;49.486;12.176;2022-08-16T10:40:51;96879.25;;;27.67;45.87
29045;BME280;16133;49.486;12.176;2022-08-16T10:43:16;96870.16;;;27.85;45.70
29045;BME280;16133;49.486;12.176;2022-08-16T10:45:42;96868.25;;;28.13;44.82
29045;BME280;16133;49.486;12.176;2022-08-16T10:48:09;96858.56;;;28.21;44.03
29045;BME280;16133;49.486;12.176;2022-08-16T10:50:36;96861.28;;;28.57;43.61
29045;BME280;16133;49.486;12.176;2022-08-16T10:53:02;96864.94;;;28.88;43.81
29045;BME280;16133;49.486;12.176;2022-08-16T10:55:32;96855.09;;;29.01;41.70
29045;BME280;16133;49.486;12.176;2022-08-16T10:57:58;96856.50;;;28.76;42.06
29045;BME280;16133;49.486;12.176;2022-08-16T11:00:26;96851.66;;;28.73;42.75
29045;BME280;16133;49.486;12.176;2022-08-16T11:02:52;96855.31;;;28.68;42.06
29045;BME280;16133;49.486;12.176;2022-08-16T11:05:17;96848.47;;;28.79;42.19
29045;BME280;16133;49.486;12.176;2022-08-16T11:07:45;96839.06;;;28.85;41.77
29045;BME280;16133;49.486;12.176;2022-08-16T11:10:15;96851.47;;;28.91;42.03
29045;BME280;16133;49.486;12.176;2022-08-16T11:12:40;96851.72;;;29.04;41.96
29045;BME280;16133;49.486;12.176;2022-08-16T11:15:06;96846.00;;;29.14;41.04
29045;BME280;16133;49.486;12.176;2022-08-16T11:17:31;96849.09;;;29.21;41.08
29045;BME280;16133;49.486;12.176;2022-08-16T11:19:56;96854.63;;;29.29;40.80
29045;BME280;16133;49.486;12.176;2022-08-16T11:22:22;96850.06;;;29.25;40.42
29045;BME280;16133;49.486;12.176;2022-08-16T11:24:48;96856.16;;;29.22;40.45
29045;BME280;16133;49.486;12.176;2022-08-16T11:27:18;96846.50;;;29.16;41.35
29045;BME280;16133;49.486;12.176;2022-08-16T11:29:44;96846.13;;;29.09;41.08
29045;BME280;16133;49.486;12.176;2022-08-16T11:32:09;96841.09;;;29.02;40.48
29045;BME280;16133;49.486;12.176;2022-08-16T11:34:35;96845.47;;;28.81;40.58
29045;BME280;16133;49.486;12.176;2022-08-16T11:37:01;96842.78;;;28.89;40.73
29045;BME280;16133;49.486;12.176;2022-08-16T11:39:30;96839.19;;;29.03;41.11
29045;BME280;16133;49.486;12.176;2022-08-16T11:41:56;96836.06;;;29.18;40.48
29045;BME280;16133;49.486;12.176;2022-08-16T11:44:22;96837.81;;;29.36;39.58
29045;BME280;16133;49.486;12.176;2022-08-16T11:46:47;96835.44;;;29.43;39.31
29045;BME280;16133;49.486;12.176;2022-08-16T11:49:13;96841.13;;;29.64;39.20
29045;BME280;16133;49.486;12.176;2022-08-16T11:51:38;96837.63;;;29.72;38.86
29045;BME280;16133;49.486;12.176;2022-08-16T11:54:07;96839.97;;;29.87;38.71
29045;BME280;16133;49.486;12.176;2022-08-16T11:56:33;96831.78;;;29.96;36.71
29045;BME280;16133;49.486;12.176;2022-08-16T11:58:59;96836.13;;;29.88;37.14
29045;BME280;16133;49.486;12.176;2022-08-16T12:01:25;96838.25;;;30.00;37.36
29045;BME280;16133;49.486;12.176;2022-08-16T12:03:50;96835.91;;;30.24;37.22
29045;BME280;16133;49.486;12.176;2022-08-16T12:06:17;96824.84;;;30.46;36.36
29045;BME280;16133;49.486;12.176;2022-08-16T12:08:45;96830.94;;;30.60;36.85
29045;BME280;16133;49.486;12.176;2022-08-16T12:11:12;96830.13;;;30.51;37.33
29045;BME280;16133;49.486;12.176;2022-08-16T12:13:38;96832.84;;;30.34;37.53
29045;BME280;16133;49.486;12.176;2022-08-16T12:16:05;96836.69;;;30.16;38.22
29045;BME280;16133;49.486;12.176;2022-08-16T12:18:33;96827.09;;;29.87;38.39
29045;BME280;16133;49.486;12.176;2022-08-16T12:20:59;96843.63;;;29.82;38.28
29045;BME280;16133;49.486;12.176;2022-08-16T12:23:24;96834.09;;;29.71;37.03
29045;BME280;16133;49.486;12.176;2022-08-16T12:25:49;96830.34;;;29.59;36.65
29045;BME280;16133;49.486;12.176;2022-08-16T12:28:15;96827.63;;;29.67;38.07
29045;BME280;16133;49.486;12.176;2022-08-16T12:30:42;96831.41;;;29.80;38.04
29045;BME280;16133;49.486;12.176;2022-08-16T12:33:11;96830.66;;;29.88;38.18
29045;BME280;16133;49.486;12.176;2022-08-16T12:35:39;96826.63;;;29.94;37.70
29045;BME280;16133;49.486;12.176;2022-08-16T12:38:05;96827.59;;;29.89;37.49
29045;BME280;16133;49.486;12.176;2022-08-16T12:40:34;96826.00;;;29.88;36.80
29045;BME280;16133;49.486;12.176;2022-08-16T12:43:02;96820.91;;;29.73;36.66
29045;BME280;16133;49.486;12.176;2022-08-16T12:45:31;96825.75;;;29.76;36.56